createdAt,value
2023-02-28T00:00:04.482Z,64.34
2023-02-28T00:01:04.444Z,63.65
2023-02-28T00:02:04.480Z,63.34
2023-02-28T00:03:04.490Z,63.23
2023-02-28T00:04:04.396Z,63.31
2023-02-28T00:05:04.397Z,63.13
2023-02-28T00:06:04.386Z,63.23
2023-02-28T00:07:04.361Z,63.10
2023-02-28T00:08:04.376Z,63.44
2023-02-28T00:09:04.345Z,63.23
2023-02-28T00:10:04.329Z,63.75
2023-02-28T00:11:04.340Z,63.13
2023-02-28T00:12:04.333Z,63.13
2023-02-28T00:13:04.298Z,63.23
2023-02-28T00:14:04.288Z,63.13
2023-02-28T00:15:04.278Z,63.34
2023-02-28T00:16:04.270Z,63.13
2023-02-28T00:17:04.258Z,63.99
2023-02-28T00:18:04.269Z,63.78
2023-02-28T00:19:04.239Z,63.78
2023-02-28T00:20:04.238Z,64.09
2023-02-28T00:21:04.212Z,63.89
2023-02-28T00:22:04.207Z,63.68
2023-02-28T00:23:04.205Z,63.68
2023-02-28T00:24:04.219Z,64.09
2023-02-28T00:25:04.170Z,64.09
2023-02-28T00:26:04.171Z,63.78
2023-02-28T00:27:04.180Z,64.20
2023-02-28T00:28:04.173Z,64.17
2023-02-28T00:29:04.140Z,64.17
2023-02-28T00:30:04.140Z,64.48
2023-02-28T00:31:04.156Z,63.96
2023-02-28T00:32:04.137Z,64.40
2023-02-28T00:33:04.112Z,64.06
2023-02-28T00:34:04.075Z,63.85
2023-02-28T00:35:04.070Z,63.65
2023-02-28T00:36:04.100Z,63.96
2023-02-28T00:37:04.070Z,63.75
2023-02-28T00:38:04.025Z,63.13
2023-02-28T00:39:04.032Z,64.30
2023-02-28T00:40:04.021Z,63.85
2023-02-28T00:41:03.999Z,64.06
2023-02-28T00:42:03.987Z,64.06
2023-02-28T00:43:04.019Z,63.96
2023-02-28T00:44:03.998Z,64.20
2023-02-28T00:45:03.962Z,64.06
2023-02-28T00:46:04.036Z,63.75
2023-02-28T00:47:03.956Z,63.65
2023-02-28T00:48:03.925Z,63.96
2023-02-28T00:49:03.924Z,63.03
2023-02-28T00:50:03.920Z,64.06
2023-02-28T00:51:03.900Z,63.44
2023-02-28T00:52:03.899Z,63.44
2023-02-28T00:53:03.878Z,63.65
2023-02-28T00:54:03.875Z,64.37
2023-02-28T00:55:03.855Z,64.37
2023-02-28T00:56:03.856Z,63.85
2023-02-28T00:57:03.846Z,63.99
2023-02-28T00:58:03.836Z,63.68
2023-02-28T00:59:03.824Z,63.68
2023-02-28T01:00:03.800Z,63.68
2023-02-28T01:01:03.844Z,63.99
2023-02-28T01:02:03.770Z,63.99
2023-02-28T01:03:03.788Z,63.78
2023-02-28T01:04:03.794Z,64.09
2023-02-28T01:05:03.749Z,63.89
2023-02-28T01:06:03.730Z,64.30
2023-02-28T01:07:03.729Z,64.20
2023-02-28T01:08:03.710Z,63.89
2023-02-28T01:09:03.704Z,64.51
2023-02-28T01:10:03.728Z,64.20
2023-02-28T01:11:03.687Z,64.51
2023-02-28T01:12:03.672Z,64.51
2023-02-28T01:13:03.676Z,64.30
2023-02-28T01:14:03.665Z,64.61
2023-02-28T01:15:03.658Z,64.40
2023-02-28T01:16:03.660Z,64.51
2023-02-28T01:17:03.622Z,64.20
2023-02-28T01:18:03.603Z,64.74
2023-02-28T01:19:03.612Z,65.26
2023-02-28T01:20:03.604Z,64.74
2023-02-28T01:21:03.581Z,64.74
2023-02-28T01:22:03.597Z,64.74
2023-02-28T01:23:03.548Z,64.43
2023-02-28T01:24:03.533Z,64.64
2023-02-28T01:25:03.557Z,64.43
2023-02-28T01:26:03.532Z,65.05
2023-02-28T01:27:03.509Z,64.61
2023-02-28T01:28:03.514Z,65.23
2023-02-28T01:29:03.506Z,64.81
2023-02-28T01:30:03.483Z,64.23
2023-02-28T01:31:03.526Z,64.30
2023-02-28T01:32:03.504Z,63.89
2023-02-28T01:33:03.447Z,64.53
2023-02-28T01:34:03.430Z,64.53
2023-02-28T01:35:03.440Z,63.99
2023-02-28T01:36:03.485Z,64.84
2023-02-28T01:37:03.427Z,64.53
2023-02-28T01:38:20.507Z,64.74
2023-02-28T01:39:04.411Z,64.92
2023-02-28T01:40:03.366Z,64.81
2023-02-28T01:41:03.360Z,64.74
2023-02-28T01:42:03.352Z,65.36
2023-02-28T01:43:03.334Z,65.12
2023-02-28T01:44:03.362Z,65.26
2023-02-28T01:45:03.320Z,64.43
2023-02-28T01:46:03.358Z,65.23
2023-02-28T01:47:03.318Z,65.26
2023-02-28T01:48:03.296Z,65.16
2023-02-28T01:49:03.274Z,64.74
2023-02-28T01:50:03.270Z,64.74
2023-02-28T01:51:03.252Z,65.16
2023-02-28T01:52:03.245Z,64.84
2023-02-28T01:53:03.252Z,64.53
2023-02-28T01:54:03.219Z,64.74
2023-02-28T01:55:03.214Z,65.36
2023-02-28T01:56:03.202Z,64.95
2023-02-28T01:57:03.185Z,65.36
2023-02-28T01:58:03.171Z,65.29
2023-02-28T01:59:03.190Z,65.08
2023-02-28T02:00:03.165Z,64.67
2023-02-28T02:01:03.139Z,64.67
2023-02-28T02:02:03.199Z,64.46
2023-02-28T02:03:03.193Z,64.67
2023-02-28T02:04:03.112Z,64.77
2023-02-28T02:05:03.115Z,64.98
2023-02-28T02:06:03.090Z,65.70
2023-02-28T02:07:03.103Z,65.50
2023-02-28T02:08:03.077Z,65.19
2023-02-28T02:09:03.056Z,65.29
2023-02-28T02:10:03.052Z,65.70
2023-02-28T02:11:03.060Z,66.15
2023-02-28T02:12:03.035Z,65.94
2023-02-28T02:13:03.020Z,66.46
2023-02-28T02:14:03.008Z,66.35
2023-02-28T02:15:03.030Z,66.35
2023-02-28T02:16:03.024Z,66.66
2023-02-28T02:17:02.978Z,66.56
2023-02-28T02:18:02.957Z,66.28
2023-02-28T02:19:02.972Z,66.56
2023-02-28T02:20:02.951Z,66.56
2023-02-28T02:21:02.949Z,66.05
2023-02-28T02:22:02.926Z,66.77
2023-02-28T02:23:02.900Z,66.25
2023-02-28T02:24:02.895Z,66.38
2023-02-28T02:25:02.900Z,65.87
2023-02-28T02:26:02.874Z,66.59
2023-02-28T02:27:02.887Z,66.59
2023-02-28T02:28:02.849Z,66.18
2023-02-28T02:29:02.837Z,66.59
2023-02-28T02:30:02.832Z,66.49
2023-02-28T02:31:02.842Z,66.69
2023-02-28T02:32:02.846Z,66.28
2023-02-28T02:33:02.806Z,67.00
2023-02-28T02:34:02.794Z,67.00
2023-02-28T02:35:02.805Z,66.28
2023-02-28T02:36:02.914Z,66.90
2023-02-28T02:37:02.772Z,66.28
2023-02-28T02:38:02.759Z,66.28
2023-02-28T02:39:02.743Z,67.11
2023-02-28T02:40:02.727Z,66.90
2023-02-28T02:41:02.729Z,66.49
2023-02-28T02:42:02.752Z,66.59
2023-02-28T02:43:02.708Z,66.90
2023-02-28T02:44:02.701Z,67.21
2023-02-28T02:45:02.689Z,67.73
2023-02-28T02:46:02.673Z,67.73
2023-02-28T02:47:02.687Z,67.21
2023-02-28T02:48:02.681Z,67.24
2023-02-28T02:49:02.639Z,67.83
2023-02-28T02:50:02.634Z,67.73
2023-02-28T02:51:02.618Z,67.97
2023-02-28T02:52:02.606Z,67.63
2023-02-28T02:53:02.626Z,67.86
2023-02-28T02:54:02.579Z,67.55
2023-02-28T02:55:02.582Z,67.76
2023-02-28T02:56:02.554Z,67.86
2023-02-28T02:57:02.546Z,67.76
2023-02-28T02:58:02.539Z,67.79
2023-02-28T02:59:02.520Z,67.45
2023-02-28T03:00:02.532Z,67.66
2023-02-28T03:01:02.538Z,67.45
2023-02-28T03:02:02.496Z,67.66
2023-02-28T03:03:02.491Z,67.55
2023-02-28T03:04:02.495Z,67.66
2023-02-28T03:05:02.469Z,67.86
2023-02-28T03:06:02.486Z,67.79
2023-02-28T03:07:02.455Z,67.79
2023-02-28T03:08:02.428Z,67.66
2023-02-28T03:09:02.418Z,67.58
2023-02-28T03:10:02.399Z,67.76
2023-02-28T03:11:02.443Z,67.97
2023-02-28T03:12:02.400Z,67.66
2023-02-28T03:13:02.365Z,68.10
2023-02-28T03:14:02.364Z,67.79
2023-02-28T03:15:02.355Z,67.90
2023-02-28T03:16:02.368Z,68.00
2023-02-28T03:17:02.339Z,68.07
2023-02-28T03:18:02.330Z,68.00
2023-02-28T03:19:02.316Z,67.79
2023-02-28T03:20:02.302Z,67.79
2023-02-28T03:21:02.282Z,68.21
2023-02-28T03:22:02.299Z,68.21
2023-02-28T03:23:02.289Z,68.52
2023-02-28T03:24:02.267Z,68.41
2023-02-28T03:25:02.239Z,67.90
2023-02-28T03:26:02.236Z,68.10
2023-02-28T03:27:02.236Z,67.79
2023-02-28T03:28:02.221Z,68.00
2023-02-28T03:29:02.196Z,68.41
2023-02-28T03:30:02.206Z,68.62
2023-02-28T03:31:02.175Z,68.10
2023-02-28T03:32:02.273Z,67.79
2023-02-28T03:33:02.210Z,68.41
2023-02-28T03:34:02.161Z,68.52
2023-02-28T03:35:02.162Z,68.52
2023-02-28T03:36:02.183Z,68.21
2023-02-28T03:37:02.156Z,68.52
2023-02-28T03:38:02.110Z,68.41
2023-02-28T03:39:02.130Z,68.21
2023-02-28T03:40:02.085Z,68.31
2023-02-28T03:41:02.068Z,68.41
2023-02-28T03:42:02.063Z,68.93
2023-02-28T03:43:02.049Z,68.93
2023-02-28T03:44:02.053Z,69.17
2023-02-28T03:45:02.061Z,69.14
2023-02-28T03:46:02.043Z,68.73
2023-02-28T03:47:02.003Z,69.14
2023-02-28T03:48:02.003Z,68.76
2023-02-28T03:49:01.989Z,68.73
2023-02-28T03:50:01.985Z,68.55
2023-02-28T03:51:01.963Z,68.31
2023-02-28T03:52:01.954Z,68.34
2023-02-28T03:53:01.953Z,68.55
2023-02-28T03:54:01.928Z,68.34
2023-02-28T03:55:01.952Z,68.34
2023-02-28T03:56:01.918Z,69.17
2023-02-28T03:57:01.898Z,69.17
2023-02-28T03:58:01.885Z,68.76
2023-02-28T03:59:01.884Z,68.76
2023-02-28T04:00:01.887Z,68.96
2023-02-28T04:01:01.878Z,68.96
2023-02-28T04:02:01.909Z,68.96
2023-02-28T04:03:01.848Z,68.76
2023-02-28T04:04:01.825Z,68.96
2023-02-28T04:05:01.837Z,68.86
2023-02-28T04:06:01.806Z,69.21
2023-02-28T04:07:01.794Z,68.96
2023-02-28T04:08:01.795Z,69.07
2023-02-28T04:09:01.777Z,69.27
2023-02-28T04:10:01.765Z,69.07
2023-02-28T04:11:01.765Z,68.86
2023-02-28T04:12:01.758Z,69.17
2023-02-28T04:13:01.738Z,69.21
2023-02-28T04:14:01.715Z,69.21
2023-02-28T04:15:01.707Z,69.07
2023-02-28T04:16:01.799Z,69.42
2023-02-28T04:17:01.684Z,69.59
2023-02-28T04:18:01.683Z,69.42
2023-02-28T04:19:01.682Z,69.42
2023-02-28T04:20:01.645Z,69.52
2023-02-28T04:21:01.637Z,69.79
2023-02-28T04:22:01.642Z,69.52
2023-02-28T04:23:01.628Z,69.83
2023-02-28T04:24:01.763Z,69.62
2023-02-28T04:25:01.594Z,69.73
2023-02-28T04:26:01.601Z,69.52
2023-02-28T04:27:01.605Z,69.83
2023-02-28T04:28:01.572Z,69.62
2023-02-28T04:29:01.552Z,69.52
2023-02-28T04:30:01.565Z,69.73
2023-02-28T04:31:01.538Z,69.10
2023-02-28T04:32:01.783Z,69.83
2023-02-28T04:33:01.518Z,69.73
2023-02-28T04:34:01.502Z,69.83
2023-02-28T04:35:01.526Z,70.04
2023-02-28T04:36:01.492Z,69.73
2023-02-28T04:37:13.972Z,69.10
2023-02-28T04:38:02.460Z,69.73
2023-02-28T04:39:01.454Z,69.31
2023-02-28T04:40:01.451Z,69.73
2023-02-28T04:41:08.511Z,69.42
2023-02-28T04:42:01.449Z,69.83
2023-02-28T04:43:01.422Z,69.45
2023-02-28T04:44:01.407Z,69.73
2023-02-28T04:45:01.385Z,69.73
2023-02-28T04:46:01.420Z,69.76
2023-02-28T04:47:01.370Z,70.07
2023-02-28T04:48:01.397Z,69.96
2023-02-28T04:49:01.351Z,70.38
2023-02-28T04:50:01.330Z,70.48
2023-02-28T04:51:01.323Z,70.69
2023-02-28T04:52:01.300Z,70.59
2023-02-28T04:53:01.304Z,70.48
2023-02-28T04:54:01.299Z,70.38
2023-02-28T04:55:01.278Z,70.28
2023-02-28T04:56:01.306Z,70.38
2023-02-28T04:57:01.258Z,70.28
2023-02-28T04:58:01.254Z,70.28
2023-02-28T04:59:01.355Z,70.28
2023-02-28T05:00:01.221Z,70.28
2023-02-28T05:01:01.211Z,70.59
2023-02-28T05:02:01.222Z,70.69
2023-02-28T05:03:01.201Z,70.48
2023-02-28T05:04:01.205Z,70.28
2023-02-28T05:05:01.219Z,70.59
2023-02-28T05:06:01.155Z,70.79
2023-02-28T05:07:01.141Z,70.79
2023-02-28T05:08:01.131Z,70.69
2023-02-28T05:09:01.138Z,70.69
2023-02-28T05:10:01.136Z,70.48
2023-02-28T05:11:01.094Z,70.17
2023-02-28T05:12:01.100Z,70.17
2023-02-28T05:13:01.077Z,70.48
2023-02-28T05:14:01.072Z,70.93
2023-02-28T05:15:01.095Z,71.00
2023-02-28T05:16:01.081Z,70.79
2023-02-28T05:17:01.028Z,70.79
2023-02-28T05:18:01.043Z,70.83
2023-02-28T05:19:01.089Z,71.00
2023-02-28T05:20:13.516Z,70.90
2023-02-28T05:21:01.993Z,71.03
2023-02-28T05:22:00.994Z,70.90
2023-02-28T05:23:00.967Z,71.00
2023-02-28T05:24:00.962Z,71.11
2023-02-28T05:25:00.941Z,71.31
2023-02-28T05:26:00.951Z,71.00
2023-02-28T05:27:00.934Z,71.31
2023-02-28T05:28:00.919Z,70.62
2023-02-28T05:29:00.909Z,70.90
2023-02-28T05:30:00.892Z,70.90
2023-02-28T05:31:00.915Z,70.93
2023-02-28T05:32:01.055Z,71.45
2023-02-28T05:33:00.862Z,70.90
2023-02-28T05:34:00.864Z,71.34
2023-02-28T05:35:00.847Z,71.42
2023-02-28T05:36:00.890Z,71.31
2023-02-28T05:37:00.914Z,71.31
2023-02-28T05:38:01.011Z,71.31
2023-02-28T05:39:00.815Z,71.34
2023-02-28T05:40:00.942Z,71.31
2023-02-28T05:41:00.789Z,71.31
2023-02-28T05:42:00.759Z,71.11
2023-02-28T05:43:00.768Z,71.31
2023-02-28T05:44:00.786Z,70.93
2023-02-28T05:45:00.736Z,70.90
2023-02-28T05:46:00.762Z,70.83
2023-02-28T05:47:00.733Z,71.03
2023-02-28T05:48:01.115Z,71.03
2023-02-28T05:49:01.834Z,70.83
2023-02-28T05:50:00.704Z,71.45
2023-02-28T05:51:00.663Z,71.31
2023-02-28T05:52:00.662Z,71.31
2023-02-28T05:53:00.673Z,71.34
2023-02-28T05:54:00.630Z,71.31
2023-02-28T05:55:00.627Z,71.31
2023-02-28T05:56:00.636Z,70.90
2023-02-28T05:57:00.871Z,71.11
2023-02-28T05:58:00.610Z,70.90
2023-02-28T05:59:00.582Z,71.11
2023-02-28T06:00:00.579Z,70.93
2023-02-28T06:01:00.586Z,71.14
2023-02-28T06:02:00.632Z,71.14
2023-02-28T06:03:00.660Z,71.21
2023-02-28T06:04:00.578Z,71.03
2023-02-28T06:05:00.523Z,70.72
2023-02-28T06:06:00.516Z,70.72
2023-02-28T06:07:00.528Z,71.03
2023-02-28T06:08:00.494Z,71.03
2023-02-28T06:09:00.509Z,71.14
2023-02-28T06:10:00.460Z,71.24
2023-02-28T06:11:00.453Z,71.03
2023-02-28T06:12:00.462Z,70.72
2023-02-28T06:13:00.428Z,71.14
2023-02-28T06:14:01.058Z,71.03
2023-02-28T06:15:00.435Z,70.72
2023-02-28T06:16:00.408Z,71.03
2023-02-28T06:17:00.530Z,70.69
2023-02-28T06:18:00.375Z,70.93
2023-02-28T06:19:00.547Z,70.93
2023-02-28T06:20:00.384Z,71.11
2023-02-28T06:21:00.349Z,70.93
2023-02-28T06:22:00.357Z,70.93
2023-02-28T06:23:00.402Z,70.72
2023-02-28T06:24:00.326Z,70.83
2023-02-28T06:25:00.302Z,71.14
2023-02-28T06:26:00.309Z,70.72
2023-02-28T06:27:00.296Z,71.03
2023-02-28T06:28:00.281Z,70.79
2023-02-28T06:29:00.273Z,70.79
2023-02-28T06:30:00.248Z,70.48
2023-02-28T06:31:00.305Z,70.48
2023-02-28T06:32:00.303Z,70.51
2023-02-28T06:33:00.280Z,70.48
2023-02-28T06:34:00.228Z,70.17
2023-02-28T06:35:00.300Z,70.28
2023-02-28T06:36:00.257Z,70.28
2023-02-28T06:37:00.182Z,70.62
2023-02-28T06:38:00.175Z,70.38
2023-02-28T06:39:00.176Z,70.48
2023-02-28T06:40:00.163Z,69.86
2023-02-28T06:41:00.313Z,69.76
2023-02-28T06:42:00.142Z,69.96
2023-02-28T06:43:00.126Z,69.65
2023-02-28T06:44:00.124Z,69.24
2023-02-28T06:45:00.091Z,69.55
2023-02-28T06:46:00.194Z,69.96
2023-02-28T06:47:00.119Z,69.34
2023-02-28T06:48:00.146Z,69.34
2023-02-28T06:49:00.049Z,69.45
2023-02-28T06:50:00.050Z,69.55
2023-02-28T06:51:00.044Z,69.00
2023-02-28T06:52:00.041Z,69.24
2023-02-28T06:53:00.032Z,69.13
2023-02-28T06:54:00.048Z,69.13
2023-02-28T06:54:59.985Z,69.10
2023-02-28T06:55:59.983Z,69.21
2023-02-28T06:56:59.993Z,69.10
2023-02-28T06:57:59.975Z,69.00
2023-02-28T06:58:59.950Z,69.21
2023-02-28T06:59:59.940Z,69.00
2023-02-28T07:00:59.928Z,68.79
2023-02-28T07:01:59.979Z,68.90
2023-02-28T07:02:59.917Z,68.90
2023-02-28T07:03:59.895Z,69.21
2023-02-28T07:04:59.931Z,68.90
2023-02-28T07:05:59.905Z,68.38
2023-02-28T07:06:59.896Z,68.44
2023-02-28T07:07:59.896Z,68.34
2023-02-28T07:08:59.842Z,68.96
2023-02-28T07:09:59.843Z,68.24
2023-02-28T07:10:59.861Z,68.34
2023-02-28T07:11:59.806Z,68.55
2023-02-28T07:12:59.799Z,68.24
2023-02-28T07:13:59.772Z,68.65
2023-02-28T07:14:59.803Z,68.03
2023-02-28T07:15:59.786Z,67.82
2023-02-28T07:16:59.746Z,67.93
2023-02-28T07:17:59.733Z,68.13
2023-02-28T07:18:59.731Z,68.00
2023-02-28T07:19:59.738Z,67.82
2023-02-28T07:20:59.710Z,67.90
2023-02-28T07:21:59.693Z,67.69
2023-02-28T07:22:59.701Z,67.69
2023-02-28T07:23:59.693Z,67.79
2023-02-28T07:24:59.657Z,71.22
2023-02-28T07:25:59.682Z,74.50
2023-02-28T07:26:59.646Z,74.67
2023-02-28T07:27:59.624Z,74.74
2023-02-28T07:28:59.627Z,72.74
2023-02-28T07:29:59.619Z,72.74
2023-02-28T07:30:59.652Z,70.64
2023-02-28T07:31:59.591Z,67.54
2023-02-28T07:32:59.582Z,66.39
2023-02-28T07:33:59.582Z,65.19
2023-02-28T07:34:59.557Z,64.64
2023-02-28T07:35:59.616Z,64.32
2023-02-28T07:36:59.547Z,63.32
2023-02-28T07:37:59.524Z,63.12
2023-02-28T07:38:59.549Z,63.43
2023-02-28T07:39:59.498Z,62.39
2023-02-28T07:49:14.340Z,59.39
2023-02-28T07:50:13.142Z,59.47
2023-02-28T07:51:13.109Z,59.78
2023-02-28T07:52:13.118Z,59.67
2023-02-28T07:53:13.111Z,59.16
2023-02-28T07:54:13.094Z,59.05
2023-02-28T07:55:13.084Z,58.84
2023-02-28T07:56:13.058Z,59.57
2023-02-28T07:57:13.065Z,59.57
2023-02-28T07:58:13.073Z,59.47
2023-02-28T07:59:13.029Z,58.95
2023-02-28T08:00:13.056Z,58.72
2023-02-28T08:01:13.024Z,58.40
2023-02-28T08:02:13.067Z,58.40
2023-02-28T08:03:13.019Z,58.09
2023-02-28T08:04:13.001Z,58.09
2023-02-28T08:05:13.046Z,57.65
2023-02-28T08:06:12.967Z,57.34
2023-02-28T08:07:12.956Z,57.45
2023-02-28T08:08:12.935Z,56.93
2023-02-28T08:09:13.471Z,55.87
2023-02-28T08:10:12.987Z,55.87
2023-02-28T08:11:12.914Z,55.05
2023-02-28T08:12:12.893Z,54.74
2023-02-28T08:13:12.912Z,54.02
2023-02-28T08:14:12.895Z,52.88
2023-02-28T08:15:12.884Z,53.37
2023-02-28T08:16:12.919Z,52.03
2023-02-28T08:17:12.847Z,51.20
2023-02-28T08:18:12.818Z,50.89
2023-02-28T08:19:12.810Z,50.79
2023-02-28T08:20:12.817Z,50.38
2023-02-28T08:21:12.794Z,50.07
2023-02-28T08:22:12.787Z,49.32
2023-02-28T08:23:12.766Z,48.49
2023-02-28T08:24:12.750Z,48.60
2023-02-28T08:25:12.764Z,50.25
2023-02-28T08:26:12.784Z,48.29
2023-02-28T08:27:12.729Z,48.49
2023-02-28T08:28:12.731Z,48.27
2023-02-28T08:29:12.707Z,48.37
2023-02-28T08:30:12.685Z,47.44
2023-02-28T08:31:12.740Z,47.01
2023-02-28T08:32:28.637Z,46.82
2023-02-28T08:33:13.675Z,46.28
2023-02-28T08:34:12.652Z,46.28
2023-02-28T08:35:12.634Z,45.25
2023-02-28T08:36:12.658Z,45.36
2023-02-28T08:37:12.649Z,45.15
2023-02-28T08:38:12.613Z,44.95
2023-02-28T08:39:12.597Z,45.36
2023-02-28T08:40:12.576Z,44.92
2023-02-28T08:41:12.601Z,45.13
2023-02-28T08:42:12.594Z,44.72
2023-02-28T08:43:12.551Z,44.62
2023-02-28T08:44:12.550Z,45.11
2023-02-28T08:45:12.535Z,44.49
2023-02-28T08:46:12.592Z,44.08
2023-02-28T08:47:12.521Z,44.29
2023-02-28T08:48:12.495Z,44.70
2023-02-28T08:49:12.485Z,43.44
2023-02-28T08:50:12.480Z,43.75
2023-02-28T08:51:12.470Z,43.84
2023-02-28T08:52:12.469Z,43.81
2023-02-28T08:53:12.467Z,43.05
2023-02-28T08:54:12.437Z,42.48
2023-02-28T08:55:12.422Z,39.70
2023-02-28T08:56:12.443Z,38.06
2023-02-28T08:57:12.410Z,36.32
2023-02-28T08:58:12.413Z,34.53
2023-02-28T08:59:12.480Z,32.91
2023-02-28T09:00:12.379Z,32.23
2023-02-28T09:01:12.422Z,30.66
2023-02-28T09:02:12.349Z,29.78
2023-02-28T09:03:12.352Z,28.22
2023-02-28T09:04:13.270Z,26.47
2023-02-28T09:05:12.334Z,27.03
2023-02-28T09:06:12.328Z,25.72
2023-02-28T09:07:12.295Z,24.99
2023-02-28T09:08:12.269Z,24.77
2023-02-28T09:09:12.308Z,23.96
2023-02-28T09:10:12.258Z,24.04
2023-02-28T09:11:12.285Z,23.93
2023-02-28T09:12:12.251Z,22.61
2023-02-28T09:13:12.221Z,22.99
2023-02-28T09:14:12.221Z,22.69
2023-02-28T09:15:12.226Z,22.86
2023-02-28T09:16:12.302Z,22.26
2023-02-28T09:17:12.185Z,21.75
2023-02-28T09:18:12.177Z,21.84
2023-02-28T09:19:12.148Z,20.75
2023-02-28T09:20:12.188Z,21.34
2023-02-28T09:21:12.142Z,20.95
2023-02-28T09:22:12.152Z,20.95
2023-02-28T09:23:12.120Z,20.95
2023-02-28T09:24:12.096Z,21.15
2023-02-28T09:25:12.106Z,20.37
2023-02-28T09:26:12.108Z,20.87
2023-02-28T09:27:12.060Z,21.28
2023-02-28T09:28:12.065Z,21.61
2023-02-28T09:29:12.079Z,25.01
2023-02-28T09:30:12.196Z,22.93
2023-02-28T09:31:12.198Z,22.74
2023-02-28T09:32:12.891Z,23.26
2023-02-28T09:33:12.078Z,22.88
2023-02-28T09:34:12.272Z,23.19
2023-02-28T09:35:12.098Z,22.99
2023-02-28T09:36:12.226Z,22.69
2023-02-28T09:37:12.231Z,23.71
2023-02-28T09:38:12.247Z,23.69
2023-02-28T09:39:12.109Z,23.60
2023-02-28T09:40:12.197Z,23.82
2023-02-28T09:41:12.292Z,24.64
2023-02-28T09:42:11.934Z,25.27
2023-02-28T09:43:12.155Z,25.81
2023-02-28T09:44:11.891Z,26.43
2023-02-28T09:45:11.909Z,27.16
2023-02-28T09:46:11.989Z,26.47
2023-02-28T09:47:11.861Z,26.59
2023-02-28T09:48:11.849Z,26.60
2023-02-28T09:49:11.910Z,26.99
2023-02-28T09:50:11.834Z,27.31
2023-02-28T09:51:11.813Z,27.23
2023-02-28T09:52:11.810Z,27.24
2023-02-28T09:53:11.789Z,28.17
2023-02-28T09:54:11.881Z,28.06
2023-02-28T09:55:11.779Z,27.83
2023-02-28T09:56:11.756Z,27.30
2023-02-28T09:57:11.753Z,27.89
2023-02-28T09:58:11.740Z,26.57
2023-02-28T09:59:11.750Z,26.15
2023-02-28T10:00:11.749Z,27.33
2023-02-28T10:01:11.773Z,26.57
2023-02-28T10:02:13.263Z,25.52
2023-02-28T10:03:12.033Z,24.27
2023-02-28T10:04:11.759Z,23.43
2023-02-28T10:05:11.672Z,22.60
2023-02-28T10:06:11.653Z,22.28
2023-02-28T10:07:11.638Z,21.87
2023-02-28T10:08:11.817Z,21.76
2023-02-28T10:09:11.635Z,21.36
2023-02-28T10:10:12.005Z,21.86
2023-02-28T10:11:11.630Z,21.97
2023-02-28T10:12:11.590Z,22.08
2023-02-28T10:13:11.616Z,21.98
2023-02-28T10:14:12.357Z,22.39
2023-02-28T10:15:11.741Z,22.01
2023-02-28T10:16:13.120Z,22.74
2023-02-28T10:17:11.526Z,23.87
2023-02-28T10:18:12.813Z,23.80
2023-02-28T10:19:11.528Z,24.14
2023-02-28T10:20:11.506Z,25.08
2023-02-28T10:21:11.494Z,26.82
2023-02-28T10:22:11.501Z,26.56
2023-02-28T10:23:11.693Z,26.99
2023-02-28T10:25:11.447Z,27.86
2023-02-28T10:26:11.432Z,27.67
2023-02-28T10:27:11.449Z,28.20
2023-02-28T10:28:11.423Z,29.13
2023-02-28T10:29:11.424Z,28.76
2023-02-28T10:30:11.419Z,28.67
2023-02-28T10:31:11.421Z,29.30
2023-02-28T10:32:11.412Z,30.43
2023-02-28T10:33:11.411Z,30.32
2023-02-28T10:34:11.377Z,31.56
2023-02-28T10:35:11.336Z,31.16
2023-02-28T10:36:11.376Z,32.28
2023-02-28T10:37:11.322Z,32.29
2023-02-28T10:38:11.322Z,31.79
2023-02-28T10:39:11.298Z,32.21
2023-02-28T10:40:11.289Z,31.90
2023-02-28T10:41:21.403Z,32.41
2023-02-28T10:42:11.278Z,33.23
2023-02-28T10:43:11.272Z,33.62
2023-02-28T10:44:11.252Z,32.31
2023-02-28T10:45:11.254Z,32.80
2023-02-28T10:46:11.302Z,32.18
2023-02-28T10:47:11.212Z,32.48
2023-02-28T10:48:11.197Z,32.48
2023-02-28T10:49:11.201Z,32.29
2023-02-28T10:50:11.201Z,32.62
2023-02-28T10:51:11.164Z,32.41
2023-02-28T10:52:11.154Z,32.90
2023-02-28T10:53:11.143Z,31.99
2023-02-28T10:54:11.150Z,32.50
2023-02-28T10:55:11.131Z,32.60
2023-02-28T10:56:11.125Z,31.29
2023-02-28T10:57:11.099Z,32.73
2023-02-28T10:58:11.086Z,32.93
2023-02-28T10:59:11.110Z,32.44
2023-02-28T11:00:11.097Z,32.34
2023-02-28T11:01:11.062Z,32.66
2023-02-28T11:02:11.086Z,32.04
2023-02-28T11:03:11.050Z,32.75
2023-02-28T11:04:11.986Z,32.85
2023-02-28T11:05:11.030Z,32.35
2023-02-28T11:06:11.866Z,32.66
2023-02-28T11:07:12.217Z,33.29
2023-02-28T11:08:10.975Z,32.98
2023-02-28T11:09:10.963Z,34.01
2023-02-28T11:10:10.959Z,33.71
2023-02-28T11:11:10.969Z,33.20
2023-02-28T11:12:10.937Z,32.91
2023-02-28T11:13:10.923Z,33.42
2023-02-28T11:14:10.903Z,33.22
2023-02-28T11:15:10.901Z,34.35
2023-02-28T11:16:10.924Z,34.86
2023-02-28T11:17:10.895Z,33.54
2023-02-28T11:18:10.866Z,33.25
2023-02-28T11:19:10.846Z,33.13
2023-02-28T11:20:10.846Z,34.47
2023-02-28T11:21:10.858Z,34.67
2023-02-28T11:22:10.850Z,35.19
2023-02-28T11:23:10.808Z,35.28
2023-02-28T11:24:10.800Z,35.08
2023-02-28T11:25:10.779Z,35.60
2023-02-28T11:26:10.778Z,34.88
2023-02-28T11:27:10.789Z,35.90
2023-02-28T11:28:10.750Z,36.41
2023-02-28T11:29:10.752Z,36.21
2023-02-28T11:30:10.737Z,34.88
2023-02-28T11:31:10.785Z,34.69
2023-02-28T11:32:10.806Z,35.60
2023-02-28T11:33:10.748Z,35.92
2023-02-28T11:34:10.690Z,35.41
2023-02-28T11:35:10.667Z,34.89
2023-02-28T11:36:10.680Z,35.30
2023-02-28T11:37:10.647Z,35.00
2023-02-28T11:38:10.702Z,35.30
2023-02-28T11:39:10.633Z,35.82
2023-02-28T11:40:10.620Z,36.22
2023-02-28T11:41:10.605Z,35.80
2023-02-28T11:42:10.619Z,35.60
2023-02-28T11:43:10.580Z,37.33
2023-02-28T11:44:10.589Z,37.43
2023-02-28T11:45:10.566Z,38.55
2023-02-28T11:46:10.585Z,37.33
2023-02-28T11:47:10.547Z,36.71
2023-02-28T11:48:10.523Z,37.84
2023-02-28T11:49:10.529Z,39.04
2023-02-28T11:50:10.530Z,37.10
2023-02-28T11:51:10.498Z,36.60
2023-02-28T11:52:10.490Z,35.37
2023-02-28T11:53:10.474Z,35.58
2023-02-28T11:54:10.492Z,36.08
2023-02-28T11:55:10.500Z,35.88
2023-02-28T11:56:10.449Z,35.27
2023-02-28T11:57:10.436Z,36.08
2023-02-28T11:58:10.420Z,35.99
2023-02-28T11:59:10.451Z,36.19
2023-02-28T12:00:10.404Z,35.66
2023-02-28T12:01:10.409Z,36.08
2023-02-28T12:02:10.411Z,35.78
2023-02-28T12:03:10.420Z,36.29
2023-02-28T12:04:10.376Z,35.37
2023-02-28T12:05:10.382Z,35.90
2023-02-28T12:06:10.341Z,35.88
2023-02-28T12:07:10.380Z,36.51
2023-02-28T12:08:10.318Z,36.41
2023-02-28T12:09:10.329Z,35.80
2023-02-28T12:10:10.341Z,36.21
2023-02-28T12:11:10.380Z,36.82
2023-02-28T12:12:10.281Z,37.23
2023-02-28T12:13:10.277Z,36.21
2023-02-28T12:14:10.251Z,37.74
2023-02-28T12:15:10.247Z,37.63
2023-02-28T12:16:10.292Z,37.74
2023-02-28T12:17:10.580Z,37.53
2023-02-28T12:18:10.236Z,36.12
2023-02-28T12:19:10.205Z,36.02
2023-02-28T12:20:10.197Z,35.41
2023-02-28T12:21:10.192Z,36.04
2023-02-28T12:22:10.181Z,36.85
2023-02-28T12:23:10.159Z,36.85
2023-02-28T12:24:10.161Z,37.26
2023-02-28T12:25:10.161Z,37.26
2023-02-28T12:26:10.146Z,37.36
2023-02-28T12:27:10.109Z,37.67
2023-02-28T12:28:10.137Z,37.87
2023-02-28T12:29:10.112Z,37.77
2023-02-28T12:30:10.099Z,37.98
2023-02-28T12:31:10.071Z,37.98
2023-02-28T12:32:10.194Z,37.87
2023-02-28T12:33:10.057Z,37.67
2023-02-28T12:34:10.055Z,37.96
2023-02-28T12:35:10.033Z,38.06
2023-02-28T12:36:10.048Z,38.46
2023-02-28T12:37:10.000Z,38.16
2023-02-28T12:38:09.994Z,38.16
2023-02-28T12:39:10.897Z,37.55
2023-02-28T12:40:10.003Z,38.98
2023-02-28T12:41:09.957Z,38.14
2023-02-28T12:42:09.966Z,38.98
2023-02-28T12:43:09.941Z,37.04
2023-02-28T12:44:09.921Z,37.35
2023-02-28T12:45:11.330Z,37.16
2023-02-28T12:46:10.063Z,37.77
2023-02-28T12:47:09.891Z,37.77
2023-02-28T12:48:09.874Z,37.36
2023-02-28T12:49:09.868Z,37.16
2023-02-28T12:50:10.396Z,37.18
2023-02-28T12:51:10.957Z,37.68
2023-02-28T12:52:09.827Z,36.87
2023-02-28T12:53:09.815Z,37.38
2023-02-28T12:54:09.837Z,38.09
2023-02-28T12:55:09.803Z,37.59
2023-02-28T12:56:09.789Z,37.81
2023-02-28T12:57:09.774Z,37.79
2023-02-28T12:58:09.784Z,37.60
2023-02-28T12:59:09.763Z,38.71
2023-02-28T13:00:09.765Z,38.71
2023-02-28T13:01:09.797Z,38.20